Aeroparque Buenos Aires, Argentina
Current Conditions -  °F | °C
As of 12:00 AM on Sunday 21 Dec 2014 (Local Time) from SABE Reporting Station
Broken Clouds Broken Clouds  
Wind Chill: 70°   Ceiling: 10000
Heat Index: 70°   Visibility: 6mi
Dew Point: 63°   Wind: 18mph
Humidity: 78%   Direction: 180°S
Pressure: 29.62"   Gusts: NA
Location:  34.58°S, 58.43°W
Report Text: SABE 210300Z 18016KT 9999 SCT030 BKN10021/17 Q1003
Loading
Personal Weather Stations






























Interactive Weather Map New forecast layout! Learn more

10-Day Weather Forecast

Advertisements
Track Severe Weather on mobile